sensor_id;sensor_type;location;lat;lon;timestamp;pressure;altitude;pressure_sealevel;temperature;humidity
28310;BME280;15571;50.974;13.936;2022-12-15T00:02:38;98942.94;;;-3.94;100.00
28310;BME280;15571;50.974;13.936;2022-12-15T00:05:58;98940.16;;;-4.00;100.00
28310;BME280;15571;50.974;13.936;2022-12-15T00:09:19;98940.84;;;-4.06;100.00
28310;BME280;15571;50.974;13.936;2022-12-15T00:12:39;98950.88;;;-4.12;100.00
28310;BME280;15571;50.974;13.936;2022-12-15T00:15:58;98949.03;;;-4.16;100.00
28310;BME280;15571;50.974;13.936;2022-12-15T00:19:17;98949.72;;;-4.22;100.00
28310;BME280;15571;50.974;13.936;2022-12-15T00:22:37;98950.47;;;-4.24;100.00
28310;BME280;15571;50.974;13.936;2022-12-15T00:25:58;98948.84;;;-4.22;100.00
28310;BME280;15571;50.974;13.936;2022-12-15T00:29:17;98941.22;;;-4.20;100.00
28310;BME280;15571;50.974;13.936;2022-12-15T00:32:37;98933.63;;;-4.19;100.00
28310;BME280;15571;50.974;13.936;2022-12-15T00:35:56;98934.47;;;-4.18;100.00
28310;BME280;15571;50.974;13.936;2022-12-15T00:39:19;98948.84;;;-4.22;100.00
28310;BME280;15571;50.974;13.936;2022-12-15T00:42:22;98942.75;;;-4.26;100.00
28310;BME280;15571;50.974;13.936;2022-12-15T00:45:24;98951.25;;;-4.27;100.00
28310;BME280;15571;50.974;13.936;2022-12-15T00:48:46;98946.81;;;-4.31;100.00
28310;BME280;15571;50.974;13.936;2022-12-15T00:51:48;98948.56;;;-4.30;100.00
28310;BME280;15571;50.974;13.936;2022-12-15T00:55:07;98956.97;;;-4.34;100.00
28310;BME280;15571;50.974;13.936;2022-12-15T00:58:28;98952.38;;;-4.44;100.00
28310;BME280;15571;50.974;13.936;2022-12-15T01:01:48;98960.72;;;-4.48;100.00
28310;BME280;15571;50.974;13.936;2022-12-15T01:05:07;98960.63;;;-4.51;100.00
28310;BME280;15571;50.974;13.936;2022-12-15T01:08:26;98966.59;;;-4.51;100.00
28310;BME280;15571;50.974;13.936;2022-12-15T01:11:45;98970.84;;;-4.51;100.00
28310;BME280;15571;50.974;13.936;2022-12-15T01:15:07;98972.47;;;-4.54;100.00
28310;BME280;15571;50.974;13.936;2022-12-15T01:18:31;98981.81;;;-4.54;100.00
28310;BME280;15571;50.974;13.936;2022-12-15T01:21:51;98986.19;;;-4.51;100.00
28310;BME280;15571;50.974;13.936;2022-12-15T01:24:53;98981.06;;;-4.51;100.00
28310;BME280;15571;50.974;13.936;2022-12-15T01:27:55;98981.88;;;-4.53;100.00
28310;BME280;15571;50.974;13.936;2022-12-15T01:30:58;98984.38;;;-4.54;100.00
28310;BME280;15571;50.974;13.936;2022-12-15T01:34:01;98988.47;;;-4.59;100.00
28310;BME280;15571;50.974;13.936;2022-12-15T01:37:04;98994.34;;;-4.62;100.00
28310;BME280;15571;50.974;13.936;2022-12-15T01:40:12;99007.91;;;-4.63;100.00
28310;BME280;15571;50.974;13.936;2022-12-15T01:43:32;99002.84;;;-4.61;100.00
28310;BME280;15571;50.974;13.936;2022-12-15T01:46:36;99008.13;;;-4.57;100.00
28310;BME280;15571;50.974;13.936;2022-12-15T01:49:38;99025.19;;;-4.56;100.00
28310;BME280;15571;50.974;13.936;2022-12-15T01:52:40;99018.28;;;-4.58;100.00
28310;BME280;15571;50.974;13.936;2022-12-15T01:55:43;99021.81;;;-4.55;100.00
28310;BME280;15571;50.974;13.936;2022-12-15T01:58:48;99026.16;;;-4.52;100.00
28310;BME280;15571;50.974;13.936;2022-12-15T02:01:53;99032.16;;;-4.51;100.00
28310;BME280;15571;50.974;13.936;2022-12-15T02:04:55;99031.31;;;-4.50;100.00
28310;BME280;15571;50.974;13.936;2022-12-15T02:07:59;99032.16;;;-4.51;100.00
28310;BME280;15571;50.974;13.936;2022-12-15T02:14:25;99034.75;;;-4.50;100.00
28310;BME280;15571;50.974;13.936;2022-12-15T02:17:33;99028.84;;;-4.49;100.00
28310;BME280;15571;50.974;13.936;2022-12-15T02:20:39;99039.88;;;-4.50;100.00
28310;BME280;15571;50.974;13.936;2022-12-15T02:30:21;99045.50;;;-4.59;100.00
28310;BME280;15571;50.974;13.936;2022-12-15T02:33:24;99047.25;;;-4.58;100.00
28310;BME280;15571;50.974;13.936;2022-12-15T02:36:29;99047.38;;;-4.55;100.00
28310;BME280;15571;50.974;13.936;2022-12-15T02:39:34;99051.00;;;-4.48;100.00
28310;BME280;15571;50.974;13.936;2022-12-15T02:42:37;99061.41;;;-4.43;100.00
28310;BME280;15571;50.974;13.936;2022-12-15T02:45:47;99059.84;;;-4.38;100.00
28310;BME280;15571;50.974;13.936;2022-12-15T02:48:55;99068.56;;;-4.33;100.00
28310;BME280;15571;50.974;13.936;2022-12-15T02:52:09;99074.69;;;-4.28;100.00
28310;BME280;15571;50.974;13.936;2022-12-15T02:55:15;99077.50;;;-4.22;100.00
28310;BME280;15571;50.974;13.936;2022-12-15T02:58:25;99081.91;;;-4.16;100.00
28310;BME280;15571;50.974;13.936;2022-12-15T03:01:31;99071.84;;;-4.11;100.00
28310;BME280;15571;50.974;13.936;2022-12-15T03:04:35;99082.31;;;-4.05;100.00
28310;BME280;15571;50.974;13.936;2022-12-15T03:07:37;99088.34;;;-4.03;100.00
28310;BME280;15571;50.974;13.936;2022-12-15T03:10:39;99082.34;;;-4.03;100.00
28310;BME280;15571;50.974;13.936;2022-12-15T03:13:41;99098.59;;;-4.03;100.00
28310;BME280;15571;50.974;13.936;2022-12-15T03:16:44;99101.94;;;-4.04;100.00
28310;BME280;15571;50.974;13.936;2022-12-15T03:19:50;99111.19;;;-4.08;100.00
28310;BME280;15571;50.974;13.936;2022-12-15T03:22:52;99114.44;;;-4.12;100.00
28310;BME280;15571;50.974;13.936;2022-12-15T03:25:54;99115.31;;;-4.11;100.00
28310;BME280;15571;50.974;13.936;2022-12-15T03:28:56;99127.19;;;-4.13;100.00
28310;BME280;15571;50.974;13.936;2022-12-15T03:32:03;99134.78;;;-4.15;100.00
28310;BME280;15571;50.974;13.936;2022-12-15T03:35:05;99133.03;;;-4.16;100.00
28310;BME280;15571;50.974;13.936;2022-12-15T03:38:09;99133.81;;;-4.18;100.00
28310;BME280;15571;50.974;13.936;2022-12-15T03:41:13;99129.34;;;-4.24;100.00
28310;BME280;15571;50.974;13.936;2022-12-15T03:44:20;99130.22;;;-4.24;100.00
28310;BME280;15571;50.974;13.936;2022-12-15T03:47:23;99123.38;;;-4.25;100.00
28310;BME280;15571;50.974;13.936;2022-12-15T03:50:26;99128.44;;;-4.26;100.00
28310;BME280;15571;50.974;13.936;2022-12-15T03:53:57;99132.72;;;-4.25;100.00
28310;BME280;15571;50.974;13.936;2022-12-15T03:57:01;99137.78;;;-4.27;100.00
28310;BME280;15571;50.974;13.936;2022-12-15T04:00:06;99145.44;;;-4.27;100.00
28310;BME280;15571;50.974;13.936;2022-12-15T04:03:19;99146.25;;;-4.28;100.00
28310;BME280;15571;50.974;13.936;2022-12-15T04:06:22;99152.09;;;-4.32;100.00
28310;BME280;15571;50.974;13.936;2022-12-15T04:09:27;99156.94;;;-4.38;100.00
28310;BME280;15571;50.974;13.936;2022-12-15T04:12:29;99150.81;;;-4.43;100.00
28310;BME280;15571;50.974;13.936;2022-12-15T04:15:31;99155.66;;;-4.49;100.00
28310;BME280;15571;50.974;13.936;2022-12-15T04:18:36;99159.75;;;-4.55;100.00
28310;BME280;15571;50.974;13.936;2022-12-15T04:21:38;99174.13;;;-4.57;100.00
28310;BME280;15571;50.974;13.936;2022-12-15T04:24:40;99186.91;;;-4.57;100.00
28310;BME280;15571;50.974;13.936;2022-12-15T04:27:59;99186.91;;;-4.57;100.00
28310;BME280;15571;50.974;13.936;2022-12-15T04:31:20;99203.97;;;-4.56;100.00
28310;BME280;15571;50.974;13.936;2022-12-15T04:34:42;99208.84;;;-4.62;100.00
28310;BME280;15571;50.974;13.936;2022-12-15T04:38:01;99217.34;;;-4.63;100.00
28310;BME280;15571;50.974;13.936;2022-12-15T04:41:20;99217.16;;;-4.67;100.00
28310;BME280;15571;50.974;13.936;2022-12-15T04:44:40;99221.19;;;-4.73;100.00
28310;BME280;15571;50.974;13.936;2022-12-15T04:48:00;99221.75;;;-4.80;100.00
28310;BME280;15571;50.974;13.936;2022-12-15T04:51:20;99233.53;;;-4.83;100.00
28310;BME280;15571;50.974;13.936;2022-12-15T04:54:40;99239.41;;;-4.86;100.00
28310;BME280;15571;50.974;13.936;2022-12-15T04:58:03;99235.03;;;-4.89;100.00
28310;BME280;15571;50.974;13.936;2022-12-15T05:01:22;99236.41;;;-4.97;100.00
28310;BME280;15571;50.974;13.936;2022-12-15T05:04:42;99244.47;;;-5.07;100.00
28310;BME280;15571;50.974;13.936;2022-12-15T05:08:03;99234.16;;;-5.10;100.00
28310;BME280;15571;50.974;13.936;2022-12-15T05:11:22;99246.00;;;-5.12;100.00
28310;BME280;15571;50.974;13.936;2022-12-15T05:14:43;99250.16;;;-5.14;100.00
28310;BME280;15571;50.974;13.936;2022-12-15T05:18:03;99249.91;;;-5.21;100.00
28310;BME280;15571;50.974;13.936;2022-12-15T05:21:23;99262.38;;;-5.27;100.00
28310;BME280;15571;50.974;13.936;2022-12-15T05:24:44;99257.09;;;-5.32;100.00
28310;BME280;15571;50.974;13.936;2022-12-15T05:28:04;99268.97;;;-5.32;100.00
28310;BME280;15571;50.974;13.936;2022-12-15T05:31:23;99269.72;;;-5.35;100.00
28310;BME280;15571;50.974;13.936;2022-12-15T05:34:43;99274.44;;;-5.44;100.00
28310;BME280;15571;50.974;13.936;2022-12-15T05:37:45;99263.22;;;-5.48;100.00
28310;BME280;15571;50.974;13.936;2022-12-15T05:40:48;99278.50;;;-5.48;100.00
28310;BME280;15571;50.974;13.936;2022-12-15T05:43:51;99286.84;;;-5.52;100.00
28310;BME280;15571;50.974;13.936;2022-12-15T05:46:53;99290.06;;;-5.56;100.00
28310;BME280;15571;50.974;13.936;2022-12-15T05:49:55;99279.75;;;-5.59;100.00
28310;BME280;15571;50.974;13.936;2022-12-15T05:52:57;99289.00;;;-5.61;100.00
28310;BME280;15571;50.974;13.936;2022-12-15T05:56:01;99300.75;;;-5.65;100.00
28310;BME280;15571;50.974;13.936;2022-12-15T05:59:03;99306.56;;;-5.67;100.00
28310;BME280;15571;50.974;13.936;2022-12-15T06:02:05;99313.13;;;-5.72;100.00
28310;BME280;15571;50.974;13.936;2022-12-15T06:05:08;99309.63;;;-5.74;100.00
28310;BME280;15571;50.974;13.936;2022-12-15T06:08:10;99314.53;;;-5.79;100.00
28310;BME280;15571;50.974;13.936;2022-12-15T06:11:14;99325.53;;;-5.80;100.00
28310;BME280;15571;50.974;13.936;2022-12-15T06:14:16;99323.72;;;-5.83;100.00
28310;BME280;15571;50.974;13.936;2022-12-15T06:17:18;99331.31;;;-5.84;100.00
28310;BME280;15571;50.974;13.936;2022-12-15T06:20:30;99337.13;;;-5.87;100.00
28310;BME280;15571;50.974;13.936;2022-12-15T06:23:32;99331.00;;;-5.90;100.00
28310;BME280;15571;50.974;13.936;2022-12-15T06:26:37;99335.16;;;-5.93;100.00
28310;BME280;15571;50.974;13.936;2022-12-15T06:29:39;99341.78;;;-5.96;100.00
28310;BME280;15571;50.974;13.936;2022-12-15T06:32:41;99348.47;;;-6.00;100.00
28310;BME280;15571;50.974;13.936;2022-12-15T06:35:43;99347.44;;;-6.03;100.00
28310;BME280;15571;50.974;13.936;2022-12-15T06:38:46;99354.09;;;-6.07;100.00
28310;BME280;15571;50.974;13.936;2022-12-15T06:41:49;99350.53;;;-6.11;100.00
28310;BME280;15571;50.974;13.936;2022-12-15T06:44:51;99357.22;;;-6.13;100.00
28310;BME280;15571;50.974;13.936;2022-12-15T06:47:54;99366.44;;;-6.15;100.00
28310;BME280;15571;50.974;13.936;2022-12-15T06:50:56;99366.31;;;-6.18;100.00
28310;BME280;15571;50.974;13.936;2022-12-15T06:54:04;99376.41;;;-6.19;100.00
28310;BME280;15571;50.974;13.936;2022-12-15T06:57:08;99377.16;;;-6.22;100.00
28310;BME280;15571;50.974;13.936;2022-12-15T07:00:10;99378.69;;;-6.26;100.00
28310;BME280;15571;50.974;13.936;2022-12-15T07:03:13;99386.00;;;-6.32;100.00
28310;BME280;15571;50.974;13.936;2022-12-15T07:06:16;99381.53;;;-6.37;100.00
28310;BME280;15571;50.974;13.936;2022-12-15T07:09:18;99384.13;;;-6.36;100.00
28310;BME280;15571;50.974;13.936;2022-12-15T07:12:21;99397.59;;;-6.38;100.00
28310;BME280;15571;50.974;13.936;2022-12-15T07:15:23;99391.56;;;-6.41;100.00
28310;BME280;15571;50.974;13.936;2022-12-15T07:18:25;99413.69;;;-6.39;100.00
28310;BME280;15571;50.974;13.936;2022-12-15T07:21:30;99416.94;;;-6.42;100.00
28310;BME280;15571;50.974;13.936;2022-12-15T07:24:32;99426.97;;;-6.45;100.00
28310;BME280;15571;50.974;13.936;2022-12-15T07:27:36;99427.72;;;-6.48;100.00
28310;BME280;15571;50.974;13.936;2022-12-15T07:30:38;99425.84;;;-6.50;100.00
28310;BME280;15571;50.974;13.936;2022-12-15T07:33:40;99424.94;;;-6.52;100.00
28310;BME280;15571;50.974;13.936;2022-12-15T07:36:42;99426.59;;;-6.53;100.00
28310;BME280;15571;50.974;13.936;2022-12-15T07:39:45;99435.81;;;-6.55;100.00
28310;BME280;15571;50.974;13.936;2022-12-15T07:42:50;99437.50;;;-6.55;100.00
28310;BME280;15571;50.974;13.936;2022-12-15T07:45:55;99435.03;;;-6.54;100.00
28310;BME280;15571;50.974;13.936;2022-12-15T07:48:57;99442.59;;;-6.55;100.00
28310;BME280;15571;50.974;13.936;2022-12-15T07:51:59;99449.44;;;-6.54;100.00
28310;BME280;15571;50.974;13.936;2022-12-15T07:55:01;99444.41;;;-6.53;100.00
28310;BME280;15571;50.974;13.936;2022-12-15T07:58:07;99450.31;;;-6.54;100.00
28310;BME280;15571;50.974;13.936;2022-12-15T08:01:11;99467.50;;;-6.50;100.00
28310;BME280;15571;50.974;13.936;2022-12-15T08:04:13;99465.97;;;-6.46;100.00
28310;BME280;15571;50.974;13.936;2022-12-15T08:07:16;99467.78;;;-6.44;100.00
28310;BME280;15571;50.974;13.936;2022-12-15T08:10:18;99472.09;;;-6.43;100.00
28310;BME280;15571;50.974;13.936;2022-12-15T08:13:21;99469.38;;;-6.46;100.00
28310;BME280;15571;50.974;13.936;2022-12-15T08:16:24;99473.44;;;-6.49;100.00
28310;BME280;15571;50.974;13.936;2022-12-15T08:19:25;99467.50;;;-6.50;100.00
28310;BME280;15571;50.974;13.936;2022-12-15T08:22:30;99469.25;;;-6.49;100.00
28310;BME280;15571;50.974;13.936;2022-12-15T08:25:32;99466.84;;;-6.46;100.00
28310;BME280;15571;50.974;13.936;2022-12-15T08:28:36;99476.16;;;-6.46;100.00
28310;BME280;15571;50.974;13.936;2022-12-15T08:31:38;99488.25;;;-6.42;100.00
28310;BME280;15571;50.974;13.936;2022-12-15T08:34:41;99492.53;;;-6.41;100.00
28310;BME280;15571;50.974;13.936;2022-12-15T08:37:43;99496.94;;;-6.38;100.00
28310;BME280;15571;50.974;13.936;2022-12-15T08:40:45;99491.28;;;-6.33;100.00
28310;BME280;15571;50.974;13.936;2022-12-15T08:43:49;99499.94;;;-6.29;100.00
28310;BME280;15571;50.974;13.936;2022-12-15T08:46:52;99489.88;;;-6.26;100.00
28310;BME280;15571;50.974;13.936;2022-12-15T08:49:54;99491.78;;;-6.22;100.00
28310;BME280;15571;50.974;13.936;2022-12-15T08:52:58;99496.81;;;-6.23;100.00
28310;BME280;15571;50.974;13.936;2022-12-15T08:56:01;99504.47;;;-6.23;100.00
28310;BME280;15571;50.974;13.936;2022-12-15T08:59:04;99492.88;;;-6.17;100.00
28310;BME280;15571;50.974;13.936;2022-12-15T09:02:08;99506.69;;;-6.13;100.00
28310;BME280;15571;50.974;13.936;2022-12-15T09:05:10;99502.66;;;-6.08;100.00
28310;BME280;15571;50.974;13.936;2022-12-15T09:08:12;99500.34;;;-6.03;100.00
28310;BME280;15571;50.974;13.936;2022-12-15T09:11:14;99494.59;;;-5.99;100.00
28310;BME280;15571;50.974;13.936;2022-12-15T09:14:20;99507.38;;;-5.98;100.00
28310;BME280;15571;50.974;13.936;2022-12-15T09:17:23;99498.94;;;-5.97;100.00
28310;BME280;15571;50.974;13.936;2022-12-15T09:20:24;99501.50;;;-5.97;100.00
28310;BME280;15571;50.974;13.936;2022-12-15T09:23:28;99505.00;;;-5.95;100.00
28310;BME280;15571;50.974;13.936;2022-12-15T09:26:31;99506.00;;;-5.91;100.00
28310;BME280;15571;50.974;13.936;2022-12-15T09:29:43;99501.88;;;-5.89;100.00
28310;BME280;15571;50.974;13.936;2022-12-15T09:32:47;99505.50;;;-5.84;100.00
28310;BME280;15571;50.974;13.936;2022-12-15T09:35:49;99502.38;;;-5.78;100.00
28310;BME280;15571;50.974;13.936;2022-12-15T09:38:51;99506.09;;;-5.71;100.00
28310;BME280;15571;50.974;13.936;2022-12-15T09:41:54;99509.91;;;-5.63;100.00
28310;BME280;15571;50.974;13.936;2022-12-15T09:45:02;99508.50;;;-5.56;100.00
28310;BME280;15571;50.974;13.936;2022-12-15T09:48:08;99513.03;;;-5.51;100.00
28310;BME280;15571;50.974;13.936;2022-12-15T09:51:13;99498.81;;;-5.45;100.00
28310;BME280;15571;50.974;13.936;2022-12-15T09:54:17;99494.81;;;-5.40;100.00
28310;BME280;15571;50.974;13.936;2022-12-15T09:57:30;99492.38;;;-5.37;100.00
28310;BME280;15571;50.974;13.936;2022-12-15T10:00:35;99490.94;;;-5.32;100.00
28310;BME280;15571;50.974;13.936;2022-12-15T10:03:43;99498.75;;;-5.29;100.00
28310;BME280;15571;50.974;13.936;2022-12-15T10:06:53;99507.47;;;-5.24;100.00
28310;BME280;15571;50.974;13.936;2022-12-15T10:10:02;99507.63;;;-5.21;100.00
28310;BME280;15571;50.974;13.936;2022-12-15T10:13:08;99513.72;;;-5.17;100.00
28310;BME280;15571;50.974;13.936;2022-12-15T10:16:15;99516.50;;;-5.12;100.00
28310;BME280;15571;50.974;13.936;2022-12-15T10:19:21;99514.16;;;-5.08;100.00
28310;BME280;15571;50.974;13.936;2022-12-15T10:22:30;99514.50;;;-5.00;100.00
28310;BME280;15571;50.974;13.936;2022-12-15T10:30:15;99521.25;;;-4.82;100.00
28310;BME280;15571;50.974;13.936;2022-12-15T10:33:22;99534.41;;;-4.73;100.00
28310;BME280;15571;50.974;13.936;2022-12-15T10:36:26;99539.13;;;-4.63;100.00
28310;BME280;15571;50.974;13.936;2022-12-15T10:39:35;99536.03;;;-4.56;100.00
28310;BME280;15571;50.974;13.936;2022-12-15T10:42:44;99534.53;;;-4.50;100.00
28310;BME280;15571;50.974;13.936;2022-12-15T10:45:50;99539.94;;;-4.44;100.00
28310;BME280;15571;50.974;13.936;2022-12-15T10:52:20;99528.50;;;-4.33;100.00
28310;BME280;15571;50.974;13.936;2022-12-15T10:55:30;99526.16;;;-4.28;100.00
28310;BME280;15571;50.974;13.936;2022-12-15T10:58:34;99528.09;;;-4.23;100.00
28310;BME280;15571;50.974;13.936;2022-12-15T11:01:46;99525.66;;;-4.19;100.00
28310;BME280;15571;50.974;13.936;2022-12-15T11:04:56;99530.16;;;-4.14;100.00
28310;BME280;15571;50.974;13.936;2022-12-15T11:08:17;99526.19;;;-4.07;100.00
28310;BME280;15571;50.974;13.936;2022-12-15T11:11:29;99521.31;;;-4.01;100.00
28310;BME280;15571;50.974;13.936;2022-12-15T11:14:52;99525.75;;;-3.97;100.00
28310;BME280;15571;50.974;13.936;2022-12-15T11:17:55;99530.28;;;-3.89;100.00
28310;BME280;15571;50.974;13.936;2022-12-15T11:21:00;99523.72;;;-3.84;100.00
28310;BME280;15571;50.974;13.936;2022-12-15T11:24:04;99529.00;;;-3.80;100.00
28310;BME280;15571;50.974;13.936;2022-12-15T11:27:16;99524.88;;;-3.76;100.00
28310;BME280;15571;50.974;13.936;2022-12-15T11:30:23;99524.19;;;-3.72;100.00
28310;BME280;15571;50.974;13.936;2022-12-15T11:33:30;99530.44;;;-3.65;100.00
28310;BME280;15571;50.974;13.936;2022-12-15T11:36:39;99527.94;;;-3.64;100.00
28310;BME280;15571;50.974;13.936;2022-12-15T11:39:54;99525.63;;;-3.57;100.00
28310;BME280;15571;50.974;13.936;2022-12-15T11:46:23;99521.69;;;-3.49;100.00
28310;BME280;15571;50.974;13.936;2022-12-15T11:53:00;99524.56;;;-3.41;100.00
28310;BME280;15571;50.974;13.936;2022-12-15T11:56:16;99524.69;;;-3.38;100.00
28310;BME280;15571;50.974;13.936;2022-12-15T12:02:52;99516.34;;;-3.33;100.00
28310;BME280;15571;50.974;13.936;2022-12-15T12:06:09;99513.09;;;-3.29;100.00
28310;BME280;15571;50.974;13.936;2022-12-15T12:09:15;99499.63;;;-3.24;100.00
28310;BME280;15571;50.974;13.936;2022-12-15T12:12:23;99501.41;;;-3.22;100.00
28310;BME280;15571;50.974;13.936;2022-12-15T12:15:28;99504.91;;;-3.20;100.00
28310;BME280;15571;50.974;13.936;2022-12-15T12:18:33;99499.84;;;-3.18;100.00
28310;BME280;15571;50.974;13.936;2022-12-15T12:21:38;99493.91;;;-3.17;100.00
28310;BME280;15571;50.974;13.936;2022-12-15T12:24:42;99500.78;;;-3.16;100.00
28310;BME280;15571;50.974;13.936;2022-12-15T12:27:51;99499.16;;;-3.14;100.00
28310;BME280;15571;50.974;13.936;2022-12-15T12:30:56;99490.72;;;-3.11;100.00
28310;BME280;15571;50.974;13.936;2022-12-15T12:34:00;99494.22;;;-3.09;100.00
28310;BME280;15571;50.974;13.936;2022-12-15T12:37:12;99498.56;;;-3.07;100.00
28310;BME280;15571;50.974;13.936;2022-12-15T12:40:23;99499.59;;;-3.02;100.00
28310;BME280;15571;50.974;13.936;2022-12-15T12:43:31;99496.34;;;-2.98;100.00
28310;BME280;15571;50.974;13.936;2022-12-15T12:46:35;99496.41;;;-2.96;100.00
28310;BME280;15571;50.974;13.936;2022-12-15T12:49:41;99497.38;;;-2.92;100.00
28310;BME280;15571;50.974;13.936;2022-12-15T12:52:46;99501.81;;;-2.88;100.00
28310;BME280;15571;50.974;13.936;2022-12-15T12:55:49;99490.88;;;-2.84;100.00
28310;BME280;15571;50.974;13.936;2022-12-15T12:58:53;99487.59;;;-2.80;100.00
28310;BME280;15571;50.974;13.936;2022-12-15T13:01:55;99480.03;;;-2.77;100.00
28310;BME280;15571;50.974;13.936;2022-12-15T13:05:00;99493.00;;;-2.72;100.00
28310;BME280;15571;50.974;13.936;2022-12-15T13:08:24;99488.81;;;-2.70;100.00
28310;BME280;15571;50.974;13.936;2022-12-15T13:15:11;99491.63;;;-2.62;100.00
28310;BME280;15571;50.974;13.936;2022-12-15T13:18:15;99495.13;;;-2.60;100.00
28310;BME280;15571;50.974;13.936;2022-12-15T13:24:47;99491.78;;;-2.58;100.00
28310;BME280;15571;50.974;13.936;2022-12-15T13:27:51;99483.28;;;-2.57;100.00
28310;BME280;15571;50.974;13.936;2022-12-15T13:34:26;99480.81;;;-2.55;100.00
28310;BME280;15571;50.974;13.936;2022-12-15T13:37:45;99490.19;;;-2.54;100.00
28310;BME280;15571;50.974;13.936;2022-12-15T13:40:51;99487.63;;;-2.54;100.00
28310;BME280;15571;50.974;13.936;2022-12-15T13:43:53;99494.50;;;-2.53;100.00
28310;BME280;15571;50.974;13.936;2022-12-15T13:46:56;99503.91;;;-2.54;100.00
28310;BME280;15571;50.974;13.936;2022-12-15T13:50:09;99515.00;;;-2.53;100.00
28310;BME280;15571;50.974;13.936;2022-12-15T13:53:17;99502.19;;;-2.53;100.00
28310;BME280;15571;50.974;13.936;2022-12-15T13:56:40;99495.31;;;-2.54;100.00
28310;BME280;15571;50.974;13.936;2022-12-15T13:59:45;99499.63;;;-2.53;100.00
28310;BME280;15571;50.974;13.936;2022-12-15T14:02:48;99506.50;;;-2.52;100.00
28310;BME280;15571;50.974;13.936;2022-12-15T14:05:54;99510.78;;;-2.53;100.00
28310;BME280;15571;50.974;13.936;2022-12-15T14:09:00;99511.63;;;-2.52;100.00
28310;BME280;15571;50.974;13.936;2022-12-15T14:12:03;99518.38;;;-2.54;100.00
28310;BME280;15571;50.974;13.936;2022-12-15T14:15:10;99516.69;;;-2.55;100.00
28310;BME280;15571;50.974;13.936;2022-12-15T14:18:22;99517.50;;;-2.56;100.00
28310;BME280;15571;50.974;13.936;2022-12-15T14:21:26;99522.53;;;-2.58;100.00
28310;BME280;15571;50.974;13.936;2022-12-15T14:24:31;99525.06;;;-2.59;100.00
28310;BME280;15571;50.974;13.936;2022-12-15T14:27:33;99516.44;;;-2.61;100.00
28310;BME280;15571;50.974;13.936;2022-12-15T14:30:36;99513.78;;;-2.64;100.00
28310;BME280;15571;50.974;13.936;2022-12-15T14:33:39;99527.34;;;-2.67;100.00
28310;BME280;15571;50.974;13.936;2022-12-15T14:36:55;99521.19;;;-2.72;100.00
28310;BME280;15571;50.974;13.936;2022-12-15T14:39:59;99514.03;;;-2.81;100.00
28310;BME280;15571;50.974;13.936;2022-12-15T14:43:03;99518.16;;;-2.85;100.00
28310;BME280;15571;50.974;13.936;2022-12-15T14:46:09;99520.56;;;-2.89;100.00
28310;BME280;15571;50.974;13.936;2022-12-15T14:49:17;99529.69;;;-2.96;100.00
28310;BME280;15571;50.974;13.936;2022-12-15T14:52:26;99527.72;;;-3.03;100.00
28310;BME280;15571;50.974;13.936;2022-12-15T14:55:30;99531.84;;;-3.07;100.00
28310;BME280;15571;50.974;13.936;2022-12-15T14:58:34;99529.97;;;-3.11;100.00
28310;BME280;15571;50.974;13.936;2022-12-15T15:01:38;99525.44;;;-3.18;100.00
28310;BME280;15571;50.974;13.936;2022-12-15T15:04:40;99517.28;;;-3.31;100.00
28310;BME280;15571;50.974;13.936;2022-12-15T15:07:44;99525.53;;;-3.38;100.00
28310;BME280;15571;50.974;13.936;2022-12-15T15:10:50;99515.88;;;-3.45;100.00
28310;BME280;15571;50.974;13.936;2022-12-15T15:13:53;99519.00;;;-3.52;100.00
28310;BME280;15571;50.974;13.936;2022-12-15T15:17:13;99506.09;;;-3.55;100.00
28310;BME280;15571;50.974;13.936;2022-12-15T15:20:25;99508.41;;;-3.62;100.00
28310;BME280;15571;50.974;13.936;2022-12-15T15:23:29;99515.97;;;-3.65;100.00
28310;BME280;15571;50.974;13.936;2022-12-15T15:26:36;99526.88;;;-3.69;100.00
28310;BME280;15571;50.974;13.936;2022-12-15T15:29:38;99517.34;;;-3.73;100.00
28310;BME280;15571;50.974;13.936;2022-12-15T15:32:48;99525.56;;;-3.80;100.00
28310;BME280;15571;50.974;13.936;2022-12-15T15:35:51;99517.78;;;-3.83;100.00
28310;BME280;15571;50.974;13.936;2022-12-15T15:38:55;99522.72;;;-3.88;100.00
28310;BME280;15571;50.974;13.936;2022-12-15T15:42:03;99517.41;;;-3.93;100.00
28310;BME280;15571;50.974;13.936;2022-12-15T15:45:08;99524.00;;;-3.98;100.00
28310;BME280;15571;50.974;13.936;2022-12-15T15:48:16;99517.84;;;-4.03;100.00
28310;BME280;15571;50.974;13.936;2022-12-15T15:51:22;99526.19;;;-4.07;100.00
28310;BME280;15571;50.974;13.936;2022-12-15T15:54:27;99527.78;;;-4.09;100.00
28310;BME280;15571;50.974;13.936;2022-12-15T15:57:34;99527.69;;;-4.12;100.00
28310;BME280;15571;50.974;13.936;2022-12-15T16:00:36;99526.53;;;-4.19;100.00
28310;BME280;15571;50.974;13.936;2022-12-15T16:03:38;99530.56;;;-4.24;100.00
28310;BME280;15571;50.974;13.936;2022-12-15T16:06:41;99530.38;;;-4.29;100.00
28310;BME280;15571;50.974;13.936;2022-12-15T16:09:45;99534.34;;;-4.35;100.00
28310;BME280;15571;50.974;13.936;2022-12-15T16:12:53;99538.44;;;-4.39;100.00
28310;BME280;15571;50.974;13.936;2022-12-15T16:15:56;99541.69;;;-4.43;100.00
28310;BME280;15571;50.974;13.936;2022-12-15T16:18:58;99541.41;;;-4.49;100.00
28310;BME280;15571;50.974;13.936;2022-12-15T16:22:00;99555.53;;;-4.58;100.00
28310;BME280;15571;50.974;13.936;2022-12-15T16:25:08;99565.47;;;-4.64;100.00
28310;BME280;15571;50.974;13.936;2022-12-15T16:28:16;99561.97;;;-4.66;100.00
28310;BME280;15571;50.974;13.936;2022-12-15T16:31:26;99564.38;;;-4.69;100.00
28310;BME280;15571;50.974;13.936;2022-12-15T16:34:28;99561.56;;;-4.75;100.00
28310;BME280;15571;50.974;13.936;2022-12-15T16:37:30;99561.34;;;-4.80;100.00
28310;BME280;15571;50.974;13.936;2022-12-15T16:40:35;99570.41;;;-4.87;100.00
28310;BME280;15571;50.974;13.936;2022-12-15T16:43:38;99577.00;;;-4.92;100.00
28310;BME280;15571;50.974;13.936;2022-12-15T16:46:45;99590.41;;;-4.96;100.00